N963SG ESMQ-ESMQ

Flight info

Callsign N963SG
Flight time 0h 31m
Altitude 3000
Route VFR
Aircraft BE58/L-SDGRUY/LB1

Departure

Time 2026-05-06 18:16
Airport Kalmar Airport (ESMQ)

Arrival

Time 2026-05-06 18:47
Airport Kalmar Airport (ESMQ)
Time Latitude Longitude Altitude Speed Heading
2026-05-06 18:02 56.67984 16.28071 43 ft 0 kts 178°
2026-05-06 18:08 56.67978 16.28052 15 ft 7 kts 266°
2026-05-06 18:08 56.67977 16.27985 15 ft 6 kts 279°
2026-05-06 18:08 56.67984 16.27960 15 ft 0 kts 325°
2026-05-06 18:08 56.68002 16.27987 15 ft 9 kts 78°
2026-05-06 18:09 56.67992 16.28138 16 ft 16 kts 89°
2026-05-06 18:09 56.68002 16.28196 16 ft 6 kts 62°
2026-05-06 18:09 56.68075 16.28204 16 ft 17 kts
2026-05-06 18:09 56.68223 16.28202 17 ft 26 kts 352°
2026-05-06 18:10 56.68408 16.28221 18 ft 28 kts 359°
2026-05-06 18:10 56.68570 16.28229 20 ft 17 kts
2026-05-06 18:10 56.68691 16.28222 20 ft 19 kts 345°
2026-05-06 18:10 56.68826 16.28131 20 ft 23 kts 332°
2026-05-06 18:11 56.68987 16.28015 21 ft 27 kts 334°
2026-05-06 18:11 56.69164 16.27854 21 ft 30 kts 327°
2026-05-06 18:11 56.69286 16.27737 21 ft 13 kts 330°
2026-05-06 18:11 56.69457 16.27576 21 ft 26 kts 332°
2026-05-06 18:12 56.69619 16.27435 21 ft 28 kts 349°
2026-05-06 18:12 56.69688 16.27477 21 ft 0 kts 56°
2026-05-06 18:14 56.69688 16.27479 21 ft 2 kts 56°
2026-05-06 18:14 56.69701 16.27615 22 ft 19 kts 106°
2026-05-06 18:14 56.69656 16.27697 23 ft 1 kts 150°
2026-05-06 18:15 56.69655 16.27698 24 ft 0 kts 150°
2026-05-06 18:15 56.69508 16.27839 24 ft 70 kts 154°
2026-05-06 18:15 56.68873 16.28435 301 ft 111 kts 149°
2026-05-06 18:16 56.68132 16.29060 848 ft 127 kts 152°
2026-05-06 18:16 56.67262 16.29728 1046 ft 142 kts 154°
2026-05-06 18:16 56.66273 16.29958 959 ft 150 kts 195°
2026-05-06 18:16 56.65510 16.28706 927 ft 154 kts 244°
2026-05-06 18:17 56.65417 16.26814 865 ft 156 kts 286°
2026-05-06 18:17 56.66005 16.25244 924 ft 149 kts 329°
2026-05-06 18:17 56.66969 16.24632 955 ft 145 kts 350°
2026-05-06 18:17 56.67925 16.24144 1014 ft 145 kts 343°
2026-05-06 18:18 56.68806 16.23271 1031 ft 144 kts 328°
2026-05-06 18:18 56.69632 16.22186 919 ft 148 kts 329°
2026-05-06 18:18 56.70564 16.21447 885 ft 141 kts 356°
2026-05-06 18:18 56.71365 16.21924 898 ft 112 kts 49°
2026-05-06 18:19 56.71675 16.23217 740 ft 116 kts 77°
2026-05-06 18:19 56.71575 16.24604 632 ft 107 kts 106°
2026-05-06 18:19 56.71318 16.25753 519 ft 92 kts 120°
2026-05-06 18:19 56.70800 16.26569 218 ft 109 kts 154°
2026-05-06 18:20 56.70204 16.27172 176 ft 90 kts 145°
2026-05-06 18:20 56.69665 16.27688 53 ft 89 kts 148°
2026-05-06 18:20 56.69169 16.28156 23 ft 65 kts 147°
2026-05-06 18:20 56.68782 16.28534 20 ft 86 kts 152°
2026-05-06 18:21 56.68179 16.29076 320 ft 101 kts 146°
2026-05-06 18:21 56.67428 16.29715 700 ft 129 kts 158°
2026-05-06 18:21 56.66549 16.29468 1320 ft 142 kts 214°
2026-05-06 18:21 56.65798 16.27870 1110 ft 178 kts 245°
2026-05-06 18:22 56.65922 16.25957 957 ft 142 kts 312°
2026-05-06 18:22 56.66724 16.25208 863 ft 130 kts 355°
2026-05-06 18:22 56.67672 16.24987 936 ft 144 kts 357°
2026-05-06 18:22 56.68560 16.24514 951 ft 134 kts 302°
2026-05-06 18:23 56.69175 16.23396 870 ft 131 kts 343°
2026-05-06 18:23 56.69964 16.23795 815 ft 120 kts 46°
2026-05-06 18:23 56.70481 16.24847 758 ft 101 kts 51°
2026-05-06 18:23 56.70839 16.25809 596 ft 90 kts 82°
2026-05-06 18:24 56.70497 16.26838 319 ft 104 kts 144°
2026-05-06 18:24 56.69911 16.27433 107 ft 85 kts 144°
2026-05-06 18:24 56.69420 16.27919 29 ft 77 kts 145°
2026-05-06 18:24 56.69043 16.28292 21 ft 50 kts 152°
2026-05-06 18:25 56.68501 16.28809 98 ft 119 kts 149°
2026-05-06 18:25 56.67690 16.29497 626 ft 128 kts 154°
2026-05-06 18:25 56.66820 16.29990 954 ft 142 kts 176°
2026-05-06 18:25 56.65835 16.29398 1016 ft 160 kts 212°
2026-05-06 18:26 56.65188 16.27718 943 ft 168 kts 255°
2026-05-06 18:26 56.65226 16.25640 893 ft 166 kts 291°
2026-05-06 18:26 56.65892 16.24049 918 ft 158 kts 338°
2026-05-06 18:26 56.66959 16.23520 873 ft 159 kts 348°
2026-05-06 18:27 56.67968 16.22946 991 ft 151 kts 345°
2026-05-06 18:27 56.68975 16.22271 932 ft 156 kts 343°
2026-05-06 18:27 56.69992 16.21685 967 ft 152 kts 349°
2026-05-06 18:27 56.70951 16.22141 907 ft 148 kts 46°
2026-05-06 18:28 56.71617 16.23511 922 ft 143 kts 51°
2026-05-06 18:28 56.72118 16.25076 569 ft 148 kts 93°
2026-05-06 18:28 56.71502 16.26037 561 ft 109 kts 161°
2026-05-06 18:28 56.70871 16.26544 329 ft 95 kts 149°
2026-05-06 18:29 56.70314 16.27025 158 ft 82 kts 150°
2026-05-06 18:29 56.69813 16.27556 71 ft 82 kts 146°
2026-05-06 18:29 56.69366 16.27961 -2 ft 56 kts 148°
2026-05-06 18:29 56.69013 16.28326 2 ft 88 kts 153°
2026-05-06 18:30 56.68440 16.28732 663 ft 87 kts 162°
2026-05-06 18:30 56.67672 16.29105 926 ft 132 kts 156°
2026-05-06 18:30 56.66741 16.29680 1061 ft 146 kts 158°
2026-05-06 18:30 56.65747 16.30358 926 ft 159 kts 144°
2026-05-06 18:31 56.65148 16.31930 969 ft 153 kts 96°
2026-05-06 18:31 56.65443 16.33623 901 ft 141 kts 47°
2026-05-06 18:31 56.66301 16.34063 860 ft 132 kts 346°
2026-05-06 18:31 56.67123 16.33523 882 ft 116 kts 343°
2026-05-06 18:32 56.67836 16.33046 842 ft 107 kts 345°
2026-05-06 18:32 56.68330 16.32761 877 ft 115 kts 346°
2026-05-06 18:32 56.69377 16.32122 964 ft 118 kts 342°
2026-05-06 18:32 56.69889 16.31779 883 ft 114 kts 345°
2026-05-06 18:33 56.70501 16.31088 835 ft 99 kts 287°
2026-05-06 18:33 56.70631 16.29795 890 ft 107 kts 284°
2026-05-06 18:33 56.70720 16.28461 915 ft 105 kts 272°
2026-05-06 18:33 56.70414 16.27497 595 ft 91 kts 205°
2026-05-06 18:34 56.69793 16.27564 81 ft 92 kts 149°
2026-05-06 18:34 56.69326 16.28021 2 ft 60 kts 148°
2026-05-06 18:34 56.68841 16.28481 60 ft 105 kts 161°
2026-05-06 18:34 56.68079 16.29096 387 ft 132 kts 153°
2026-05-06 18:35 56.67271 16.29793 694 ft 132 kts 149°
2026-05-06 18:35 56.66351 16.29693 806 ft 169 kts 231°
2026-05-06 18:35 56.66383 16.27668 959 ft 161 kts 308°
2026-05-06 18:35 56.67220 16.26558 964 ft 149 kts 334°
2026-05-06 18:36 56.68108 16.25698 914 ft 140 kts 338°
2026-05-06 18:36 56.68976 16.24965 843 ft 135 kts 338°
2026-05-06 18:36 56.69811 16.24233 797 ft 133 kts 336°
2026-05-06 18:36 56.70685 16.23706 876 ft 136 kts 326°
2026-05-06 18:37 56.71425 16.22830 996 ft 128 kts 340°
2026-05-06 18:37 56.72296 16.22127 989 ft 142 kts 339°
2026-05-06 18:37 56.73221 16.21568 951 ft 135 kts
2026-05-06 18:37 56.73734 16.22603 972 ft 112 kts 99°
2026-05-06 18:38 56.73300 16.23803 889 ft 116 kts 125°
2026-05-06 18:38 56.72744 16.24632 734 ft 99 kts 146°
2026-05-06 18:38 56.72195 16.25226 574 ft 95 kts 147°
2026-05-06 18:38 56.71578 16.25866 511 ft 104 kts 146°
2026-05-06 18:39 56.70902 16.26533 336 ft 115 kts 150°
2026-05-06 18:39 56.70261 16.27128 190 ft 95 kts 147°
2026-05-06 18:39 56.69707 16.27643 55 ft 82 kts 148°
2026-05-06 18:40 56.68868 16.28453 21 ft 100 kts 152°
2026-05-06 18:40 56.68160 16.28994 490 ft 122 kts 159°
2026-05-06 18:40 56.67328 16.29529 1081 ft 134 kts 156°
2026-05-06 18:40 56.66721 16.28514 940 ft 148 kts 265°
2026-05-06 18:41 56.67096 16.26917 868 ft 146 kts 327°
2026-05-06 18:41 56.67949 16.25999 1042 ft 138 kts 340°
2026-05-06 18:41 56.68843 16.25304 899 ft 145 kts 341°
2026-05-06 18:41 56.69781 16.24778 997 ft 134 kts 359°
2026-05-06 18:42 56.70556 16.25336 769 ft 112 kts 44°
2026-05-06 18:42 56.70774 16.26297 672 ft 83 kts 120°
2026-05-06 18:42 56.70298 16.27027 238 ft 91 kts 144°
2026-05-06 18:42 56.69779 16.27568 63 ft 78 kts 148°
2026-05-06 18:43 56.69299 16.28086 316 ft 87 kts 136°
2026-05-06 18:43 56.68744 16.28930 786 ft 116 kts 138°
2026-05-06 18:43 56.68002 16.29843 993 ft 130 kts 142°
2026-05-06 18:43 56.67503 16.31058 1005 ft 131 kts 99°
2026-05-06 18:44 56.67663 16.32746 1013 ft 148 kts 59°
2026-05-06 18:44 56.68477 16.33902 1027 ft 153 kts 10°
2026-05-06 18:44 56.69372 16.33146 980 ft 141 kts 325°
2026-05-06 18:44 56.70191 16.32097 964 ft 143 kts 328°
2026-05-06 18:45 56.70952 16.31070 952 ft 134 kts 325°
2026-05-06 18:45 56.71616 16.30054 1016 ft 121 kts 321°
2026-05-06 18:45 56.72049 16.28873 922 ft 103 kts 278°
2026-05-06 18:45 56.71869 16.27545 824 ft 116 kts 247°
2026-05-06 18:46 56.71431 16.26461 791 ft 103 kts 202°
2026-05-06 18:46 56.70723 16.26609 376 ft 106 kts 144°
2026-05-06 18:46 56.70132 16.27226 211 ft 98 kts 149°
2026-05-06 18:46 56.69547 16.27796 35 ft 89 kts 147°
2026-05-06 18:47 56.69110 16.28224 21 ft 57 kts 153°
2026-05-06 18:47 56.68793 16.28527 20 ft 52 kts 151°
2026-05-06 18:47 56.68534 16.28681 18 ft 20 kts 219°
2026-05-06 18:47 56.68443 16.28531 18 ft 15 kts 226°
2026-05-06 18:48 56.68379 16.28399 18 ft 13 kts 228°
2026-05-06 18:48 56.68314 16.28269 18 ft 15 kts 227°
2026-05-06 18:48 56.68227 16.28209 17 ft 14 kts 181°
2026-05-06 18:48 56.68090 16.28208 17 ft 26 kts 180°
2026-05-06 18:49 56.67982 16.28131 16 ft 10 kts 139°
2026-05-06 18:49 56.67971 16.28129 16 ft 3 kts 256°
2026-05-06 18:49 56.67975 16.28118 16 ft 0 kts 348°